Abbeville, MS

12:53 AM CDT on October 23, 2014 (GMT -0500)
University-Oxford | Change Station
CLOSE
Current Station
Airport
Location: Oxford,
Elevation: 453 ft
Nearby Weather Stations

Elev 453 ft 34.38 °N, 89.54 °W | Updated 18 minutes ago

Clear
Clear
45 °F
Feels Like 45 °F
N
0
Wind Variable Wind from North

Today
High -- | Low -- °F
--% Chance of Precip.
Yesterday
High -- | Low -- °F
Precip. -- in
7:10 AM 6:14 PM
Waning Crescent, 0% visible
Pressure 30.18 in
Visibility 10.0 miles
Clouds Clear
Dew Point 41 °F
Humidity 87%
Rainfall 0.00 in
Snow Depth Not available.
UV 0 out of 12
Pollen 1.90 out of 12
Air Quality Not available.
Flu Activity No Activity
METAR KUOX 230535Z AUTO 00000KT 10SM CLR 07/05 A3018 RMK AO2 PWINO PNO

More Conditions Fewer Conditions

Pressure 30.18 in
Visibility 10.0 miles
Clouds Clear
Dew Point 41 °F
Humidity 87%
Rainfall 0.00 in
Snow Depth Not available.
UV 0 out of 12
Pollen 1.90 out of 12
Air Quality Not available.
Flu Activity No Activity
METAR KUOX 230535Z AUTO 00000KT 10SM CLR 07/05 A3018 RMK AO2 PWINO PNO

More Conditions Fewer Conditions

10-Day Weather Forecast

Almanac

Astronomy

Oct. 23, 2014 Rise Set
Actual Time 7:10 AM CDT 6:14 PM CDT
Civil Twilight 6:44 AM CDT 6:39 PM CDT
Nautical Twilight 6:15 AM CDT 7:09 PM CDT
Astronomical Twilight 5:46 AM CDT 7:38 PM CDT
Moon 6:51 AM CDT 6:15 PM CDT
Length of Visible Light 11h 54m
Length of Day
11h 03m
Tomorrow will be 1m 59s shorter.
Waning Crescent, 0% of the Moon is Illuminated
Today
Waning Crescent
Oct 23
New
Oct 30
First Quarter
Nov 6
Full
Nov 14
Last Quarter

Today's Extremes

State Highs State Lows

Community

WunderPhotos

Upload Photos

1,764,188 photos uploaded!

Nearby

Snow Depth

Station Depth Elevation
No new snow has been reported.

Earthquake Activity

City Distance Mag. Time & Date
No recent earthquake activity has been reported nearby.
Minimum magnitude displayed is 2.5.

Coastal Water Temperatures

Place Temperature
No Stations Reporting

Nearby Weather Stations